Time;durP1;ratioP1;P1;durP2;ratioP2;P2;SDS_P1;SDS_P2;PMS_P1;PMS_P2;Temp;Humidity;BMP_temperature;BMP_pressure;BME280_temperature;BME280_humidity;BME280_pressure;Samples;Min_cycle;Max_cycle;Signal;HPM_P1;HPM_P2
2021/06/23 00:00:27;;;;;;;0.93;0.93;;;;;;;13.99;90.01;98382.91;5095479;28;20032;-60
2021/06/23 00:02:54;;;;;;;0.17;0.17;;;;;;;13.94;89.79;98372.69;5095180;28;20031;-60
2021/06/23 00:05:21;;;;;;;0.10;0.10;;;;;;;13.93;89.86;98381.22;5095723;28;20111;-61
2021/06/23 00:07:47;;;;;;;0.10;0.10;;;;;;;13.91;89.99;98381.47;5100085;28;20050;-62
2021/06/23 00:10:14;;;;;;;0.10;0.10;;;;;;;13.86;90.11;98375.94;5095636;28;20107;-62
2021/06/23 00:12:42;;;;;;;0.20;0.20;;;;;;;13.83;89.91;98379.22;5095523;28;20036;-60
2021/06/23 00:15:10;;;;;;;0.10;0.10;;;;;;;13.83;89.91;98376.47;5095191;28;20024;-61
2021/06/23 00:17:36;;;;;;;0.10;0.10;;;;;;;13.81;89.90;98382.25;5077692;28;20062;-60
2021/06/23 00:20:02;;;;;;;0.30;0.30;;;;;;;13.80;89.86;98382.53;5095136;28;20067;-59
2021/06/23 00:22:28;;;;;;;0.10;0.10;;;;;;;13.79;89.95;98384.44;5095370;28;20039;-61
2021/06/23 00:24:54;;;;;;;0.38;0.20;;;;;;;13.78;89.97;98404.03;5094664;28;20397;-60
2021/06/23 00:27:20;;;;;;;0.10;0.10;;;;;;;13.76;90.19;98390.50;5095285;28;20032;-61
2021/06/23 00:29:46;;;;;;;0.10;0.10;;;;;;;13.77;90.17;98396.88;5094850;28;20031;-59
2021/06/23 00:32:14;;;;;;;0.10;0.10;;;;;;;13.74;90.14;98391.88;5094834;28;20493;-59
2021/06/23 00:34:40;;;;;;;0.10;0.10;;;;;;;13.72;89.90;98400.44;5093901;28;20119;-61
2021/06/23 00:37:05;;;;;;;0.10;0.10;;;;;;;13.68;90.27;98393.78;5095092;28;20107;-60
2021/06/23 00:39:32;;;;;;;0.10;0.10;;;;;;;13.66;90.22;98391.28;5094992;28;20036;-59
2021/06/23 00:41:58;;;;;;;0.10;0.10;;;;;;;13.62;90.00;98414.16;5094953;28;20034;-60
2021/06/23 00:44:24;;;;;;;0.10;0.10;;;;;;;13.54;89.95;98401.66;5094312;28;20032;-60
2021/06/23 00:46:50;;;;;;;0.10;0.10;;;;;;;13.47;89.95;98412.94;5094622;28;20115;-60
2021/06/23 00:49:17;;;;;;;0.30;0.30;;;;;;;13.38;90.03;98400.69;5094776;28;20031;-58
2021/06/23 00:51:44;;;;;;;0.10;0.10;;;;;;;13.35;89.90;98405.91;5094771;28;20084;-59
2021/06/23 00:54:11;;;;;;;0.10;0.10;;;;;;;13.30;90.06;98407.50;5094731;28;20032;-59
2021/06/23 00:56:38;;;;;;;0.10;0.10;;;;;;;13.30;89.80;98404.75;5094647;28;20051;-61
2021/06/23 00:59:05;;;;;;;0.15;0.15;;;;;;;13.27;90.18;98398.94;5075875;28;20028;-62
2021/06/23 01:01:35;;;;;;;0.10;0.10;;;;;;;13.25;89.85;98406.63;5094520;28;20035;-62
2021/06/23 01:04:01;;;;;;;0.10;0.10;;;;;;;13.19;90.32;98418.69;5094222;28;20036;-61
2021/06/23 01:06:29;;;;;;;0.10;0.10;;;;;;;13.15;90.30;98412.91;5094472;28;20028;-61
2021/06/23 01:08:55;;;;;;;0.10;0.10;;;;;;;13.08;89.91;98423.28;5094351;28;20048;-62
2021/06/23 01:11:22;;;;;;;0.10;0.10;;;;;;;12.99;89.87;98428.44;5075546;28;20520;-62
2021/06/23 01:14:03;;;;;;;0.10;0.10;;;;;;;12.91;90.11;98427.00;5094046;28;20039;-62
2021/06/23 01:16:33;;;;;;;0.10;0.10;;;;;;;12.85;89.97;98430.78;5098360;28;20070;-61
2021/06/23 01:19:00;;;;;;;0.10;0.10;;;;;;;12.86;89.97;98426.94;5076223;28;20036;-61
2021/06/23 01:21:28;;;;;;;0.20;0.20;;;;;;;12.85;90.10;98439.03;5094226;28;20028;-61
2021/06/23 01:23:54;;;;;;;0.10;0.10;;;;;;;12.83;90.10;98438.47;5093928;28;20104;-61
2021/06/23 01:26:20;;;;;;;0.25;0.25;;;;;;;12.80;90.16;98448.06;5093867;28;20032;-61
2021/06/23 01:28:46;;;;;;;0.10;0.10;;;;;;;12.78;89.89;98430.97;5093768;28;20120;-61
2021/06/23 01:31:15;;;;;;;0.10;0.10;;;;;;;12.79;89.87;98434.56;5093774;28;20178;-60
2021/06/23 01:33:41;;;;;;;0.10;0.10;;;;;;;12.77;89.57;98450.53;5093975;28;20071;-60
2021/06/23 01:36:07;;;;;;;0.10;0.10;;;;;;;12.76;89.58;98440.59;5075236;28;20446;-60
2021/06/23 01:38:34;;;;;;;0.10;0.10;;;;;;;12.76;89.73;98438.69;5093268;28;20085;-62
2021/06/23 01:41:00;;;;;;;0.10;0.10;;;;;;;12.76;89.64;98448.84;5093244;28;20122;-63
2021/06/23 01:43:26;;;;;;;0.20;0.20;;;;;;;12.76;89.71;98451.63;5093654;28;20028;-60
2021/06/23 01:45:52;;;;;;;0.20;0.20;;;;;;;12.76;89.62;98454.38;5093438;28;20362;-59
2021/06/23 01:48:20;;;;;;;0.10;0.10;;;;;;;12.77;89.46;98462.38;5093724;28;20035;-60
2021/06/23 01:50:54;;;;;;;0.10;0.10;;;;;;;12.75;89.80;98470.06;5093691;28;20076;-61
2021/06/23 01:53:21;;;;;;;0.13;0.13;;;;;;;12.75;89.59;98455.44;5093476;28;20043;-60
2021/06/23 01:55:49;;;;;;;0.10;0.10;;;;;;;12.74;89.71;98473.91;5093273;28;20031;-61
2021/06/23 01:58:15;;;;;;;0.10;0.10;;;;;;;12.74;89.59;98468.41;5093476;28;20043;-61
2021/06/23 02:00:49;;;;;;;0.10;0.10;;;;;;;12.75;89.69;98475.59;5093274;28;20122;-61
2021/06/23 02:03:52;;;;;;;0.10;0.10;;;;;;;12.73;89.71;98477.75;5093891;28;20490;-63
2021/06/23 02:06:36;;;;;;;0.10;0.10;;;;;;;12.72;89.88;98475.25;5074756;28;20056;-63
2021/06/23 02:09:39;;;;;;;0.10;0.10;;;;;;;12.73;89.67;98468.66;5092656;28;20127;-61
2021/06/23 02:12:22;;;;;;;0.10;0.10;;;;;;;12.82;89.72;98486.38;5093404;28;20036;-62
2021/06/23 02:14:51;;;;;;;0.10;0.10;;;;;;;12.94;89.57;98484.34;5074798;28;20382;-61
2021/06/23 02:17:17;;;;;;;0.38;0.38;;;;;;;13.06;89.64;98497.13;5093334;28;20030;-61
2021/06/23 02:19:46;;;;;;;0.13;0.13;;;;;;;13.14;89.69;98505.78;5092529;28;20524;-53
2021/06/23 02:22:24;;;;;;;0.10;0.10;;;;;;;13.24;89.50;98501.47;5090283;28;20058;-59
2021/06/23 02:24:53;;;;;;;0.20;0.20;;;;;;;13.31;89.48;98508.44;5073829;28;20048;-61
2021/06/23 02:27:22;;;;;;;0.10;0.10;;;;;;;13.35;89.69;98514.28;5092933;28;20389;-61
2021/06/23 02:29:49;;;;;;;0.10;0.10;;;;;;;13.38;89.25;98523.97;5074045;28;20397;-61
2021/06/23 02:32:18;;;;;;;0.10;0.10;;;;;;;13.38;89.32;98529.47;5074582;28;20038;-60
2021/06/23 02:34:48;;;;;;;0.10;0.10;;;;;;;13.42;89.60;98523.19;5092896;28;20067;-61
2021/06/23 02:37:15;;;;;;;0.10;0.10;;;;;;;13.47;89.63;98527.91;5092518;28;20040;-53
2021/06/23 02:39:42;;;;;;;0.20;0.20;;;;;;;13.49;89.65;98532.09;5092811;28;20089;-56
2021/06/23 02:42:09;;;;;;;0.10;0.10;;;;;;;13.50;89.56;98535.69;5092979;28;20031;-63
2021/06/23 02:44:35;;;;;;;0.10;0.10;;;;;;;13.55;89.76;98540.41;5092622;28;20032;-54
2021/06/23 02:47:02;;;;;;;0.10;0.10;;;;;;;13.57;89.76;98544.56;5092759;28;20077;-54
2021/06/23 02:49:29;;;;;;;0.10;0.10;;;;;;;13.63;89.75;98554.56;5092657;28;20032;-51
2021/06/23 02:51:57;;;;;;;0.13;0.13;;;;;;;13.75;89.59;98546.13;5092955;28;20494;-62
2021/06/23 02:54:27;;;;;;;0.10;0.10;;;;;;;13.92;89.62;98545.16;5074267;28;20064;-55
2021/06/23 02:56:53;;;;;;;0.17;0.17;;;;;;;14.08;89.25;98557.16;5075168;28;20024;-62
2021/06/23 02:59:20;;;;;;;0.20;0.20;;;;;;;14.22;89.20;98569.41;5078963;28;20036;-59
2021/06/23 03:01:48;;;;;;;0.22;0.22;;;;;;;14.46;88.88;98569.03;5096987;28;20169;-57
2021/06/23 03:04:14;;;;;;;0.10;0.10;;;;;;;14.64;88.45;98571.38;5096305;28;20446;-55
2021/06/23 03:06:40;;;;;;;0.10;0.10;;;;;;;14.72;88.57;98570.03;5096631;28;20040;-53
2021/06/23 03:09:06;;;;;;;0.10;0.10;;;;;;;14.65;88.78;98570.28;5077907;28;20097;-61
2021/06/23 03:11:36;;;;;;;0.10;0.10;;;;;;;14.89;88.52;98559.63;5078008;28;20032;-50
2021/06/23 03:14:03;;;;;;;0.10;0.10;;;;;;;15.35;88.06;98571.97;5096053;28;20392;-57
2021/06/23 03:16:29;;;;;;;0.10;0.10;;;;;;;15.56;87.77;98559.84;5096337;28;20516;-54
2021/06/23 03:18:55;;;;;;;0.10;0.10;;;;;;;15.56;87.88;98565.38;5096674;28;20035;-60
2021/06/23 03:21:21;;;;;;;0.20;0.20;;;;;;;15.75;87.82;98570.38;5077962;28;20064;-54
2021/06/23 03:23:49;;;;;;;0.10;0.10;;;;;;;16.00;87.45;98571.53;5096031;28;20028;-61
2021/06/23 03:26:15;;;;;;;0.20;0.20;;;;;;;16.31;86.64;98575.13;5096547;28;20054;-60
2021/06/23 03:28:40;;;;;;;0.10;0.10;;;;;;;16.69;85.89;98567.31;5096333;28;20389;-61
2021/06/23 03:31:06;;;;;;;0.10;0.10;;;;;;;17.17;85.29;98569.69;5096343;28;20055;-60
2021/06/23 03:33:32;;;;;;;0.10;0.10;;;;;;;17.48;85.06;98572.31;5096092;28;20485;-55
2021/06/23 03:35:58;;;;;;;0.10;0.10;;;;;;;17.59;85.14;98585.00;5062904;28;20039;-58
2021/06/23 03:38:24;;;;;;;0.10;0.10;;;;;;;17.55;85.08;98574.75;5095844;28;20032;-55
2021/06/23 03:40:50;;;;;;;0.15;0.15;;;;;;;17.48;85.23;98581.44;5096239;28;20039;-58
2021/06/23 03:43:19;;;;;;;0.10;0.10;;;;;;;17.42;85.29;98585.38;5096206;28;20031;-54
2021/06/23 03:45:48;;;;;;;0.17;0.17;;;;;;;17.57;85.10;98586.41;5078149;28;20557;-55
2021/06/23 03:48:15;;;;;;;0.10;0.10;;;;;;;17.93;84.33;98580.66;5096009;28;20032;-53
2021/06/23 03:50:44;;;;;;;0.10;0.10;;;;;;;18.06;84.50;98593.06;5095374;28;20111;-54
2021/06/23 03:53:11;;;;;;;0.10;0.10;;;;;;;17.97;84.65;98588.09;5095736;28;20024;-56
2021/06/23 03:55:36;;;;;;;0.10;0.10;;;;;;;17.69;85.16;98598.81;5077321;28;20079;-62
2021/06/23 03:58:03;;;;;;;0.10;0.10;;;;;;;17.64;85.30;98609.16;5095866;28;20055;-59
2021/06/23 04:00:30;;;;;;;0.10;0.10;;;;;;;17.93;84.84;98602.88;5095487;28;20111;-55
2021/06/23 04:02:56;;;;;;;0.10;0.10;;;;;;;18.34;84.21;98605.31;5095762;28;20065;-55
2021/06/23 04:05:22;;;;;;;0.10;0.10;;;;;;;18.72;83.42;98592.44;5095640;28;20408;-51
2021/06/23 04:07:48;;;;;;;0.10;0.10;;;;;;;19.15;83.04;98599.25;5094994;28;20101;-57
2021/06/23 04:10:18;;;;;;;0.10;0.10;;;;;;;19.15;83.08;98588.94;5094622;28;20560;-58
2021/06/23 04:12:44;;;;;;;3.08;0.20;;;;;;;19.18;83.13;98605.03;5095520;28;20036;-54
2021/06/23 04:15:15;;;;;;;0.10;0.10;;;;;;;18.91;83.54;98592.56;5076872;28;20056;-54
2021/06/23 04:17:47;;;;;;;0.10;0.10;;;;;;;18.89;83.49;98592.03;5077318;28;20573;-52
2021/06/23 04:20:14;;;;;;;0.10;0.10;;;;;;;18.94;83.32;98607.03;5095375;28;20036;-59
2021/06/23 04:22:40;;;;;;;0.10;0.10;;;;;;;19.06;83.31;98607.44;5094743;28;20036;-59
2021/06/23 04:25:08;;;;;;;0.17;0.17;;;;;;;21.45;78.44;98605.00;5094390;28;20028;-54
2021/06/23 04:27:34;;;;;;;0.20;0.20;;;;;;;23.26;75.68;98612.63;5076523;28;20126;-61
2021/06/23 04:30:00;;;;;;;0.20;0.20;;;;;;;24.62;73.27;98611.81;5092939;28;20119;-63
2021/06/23 04:32:25;;;;;;;0.10;0.10;;;;;;;25.59;71.73;98603.84;5093058;28;20036;-66
2021/06/23 04:34:51;;;;;;;0.10;0.10;;;;;;;25.41;72.64;98609.59;5074774;28;20031;-61
2021/06/23 04:37:17;;;;;;;0.10;0.10;;;;;;;26.78;69.90;98609.22;5094528;28;20043;-62
2021/06/23 04:39:43;;;;;;;0.10;0.10;;;;;;;28.39;67.17;98614.81;5095029;28;20485;-61
2021/06/23 04:42:08;;;;;;;0.20;0.20;;;;;;;29.84;64.24;98614.59;5094864;28;20052;-61
2021/06/23 04:44:34;;;;;;;0.20;0.20;;;;;;;31.19;62.22;98620.63;5094880;28;20028;-61
2021/06/23 04:47:00;;;;;;;0.10;0.10;;;;;;;31.79;62.34;98605.03;5094600;28;20047;-62
2021/06/23 04:49:26;;;;;;;0.00;0.00;;;;;;;30.70;66.07;98593.00;5080811;28;20023;-61
2021/06/23 04:51:52;;;;;;;0.10;0.10;;;;;;;28.44;69.60;98609.72;5100817;28;20032;-61
2021/06/23 04:54:17;;;;;;;0.15;0.15;;;;;;;27.57;74.45;98605.44;5082080;28;20514;-60
2021/06/23 04:56:43;;;;;;;0.10;0.10;;;;;;;26.30;75.76;98599.41;5059399;28;20051;-60
2021/06/23 04:59:09;;;;;;;0.10;0.10;;;;;;;26.25;77.60;98597.63;5095110;28;20493;-60
2021/06/23 05:01:35;;;;;;;0.10;0.10;;;;;;;27.82;75.37;98600.56;5114395;28;20114;-63
2021/06/23 05:04:01;;;;;;;0.10;0.10;;;;;;;27.46;74.87;98596.63;5114306;28;20114;-60
2021/06/23 05:06:26;;;;;;;0.25;0.25;;;;;;;27.17;75.29;98603.28;5114284;28;20545;-60
2021/06/23 05:08:52;;;;;;;0.08;0.08;;;;;;;25.77;76.27;98610.19;5095955;28;20130;-60
2021/06/23 05:11:18;;;;;;;0.10;0.10;;;;;;;25.99;77.69;98615.53;5095825;28;20081;-61
2021/06/23 05:13:44;;;;;;;0.00;0.00;;;;;;;25.78;77.44;98626.72;5114448;28;20035;-59
2021/06/23 05:16:10;;;;;;;0.10;0.10;;;;;;;24.55;78.31;98614.28;5114487;28;20412;-60
2021/06/23 05:18:36;;;;;;;0.20;0.20;;;;;;;25.41;78.58;98612.41;5114011;28;20059;-59
2021/06/23 05:21:03;;;;;;;0.43;0.20;;;;;;;27.17;75.53;98606.09;5113259;28;20070;-60
2021/06/23 05:23:29;;;;;;;0.10;0.10;;;;;;;28.99;72.43;98606.41;5114322;28;20084;-61
2021/06/23 05:25:55;;;;;;;0.10;0.10;;;;;;;30.87;69.45;98605.84;5113933;28;20036;-61
2021/06/23 05:28:21;;;;;;;0.10;0.10;;;;;;;32.36;66.99;98605.00;5114331;28;20084;-62
2021/06/23 05:30:47;;;;;;;0.10;0.10;;;;;;;33.11;65.52;98610.75;5095647;28;20024;-61
2021/06/23 05:33:13;;;;;;;0.03;0.03;;;;;;;30.08;67.11;98615.53;5095577;28;20115;-60
2021/06/23 05:35:39;;;;;;;0.38;0.38;;;;;;;26.93;70.77;98613.34;5114202;28;20464;-61
2021/06/23 05:38:05;;;;;;;0.03;0.03;;;;;;;25.25;74.13;98622.50;5095413;28;20084;-62
2021/06/23 05:40:31;;;;;;;0.00;0.00;;;;;;;23.62;75.90;98620.00;5114204;28;20053;-60
2021/06/23 05:42:57;;;;;;;0.10;0.10;;;;;;;22.36;78.29;98625.63;5113470;28;20035;-61
2021/06/23 05:45:23;;;;;;;0.68;0.68;;;;;;;21.75;81.13;98615.84;5095431;28;20076;-61
2021/06/23 05:47:49;;;;;;;1.30;0.30;;;;;;;23.18;85.54;98613.44;5113744;28;20496;-61
2021/06/23 05:50:15;;;;;;;0.00;0.00;;;;;;;23.70;83.71;98619.16;5113749;28;20061;-60
2021/06/23 05:52:41;;;;;;;0.38;0.38;;;;;;;23.91;82.99;98633.44;5114050;28;20027;-61
2021/06/23 05:55:07;;;;;;;0.10;0.10;;;;;;;23.62;82.69;98620.81;5113631;28;20039;-61
2021/06/23 05:57:33;;;;;;;0.10;0.10;;;;;;;24.82;82.74;98627.97;5114026;28;20031;-62
2021/06/23 05:59:59;;;;;;;0.10;0.10;;;;;;;25.87;80.05;98610.63;5111285;28;20036;-62
2021/06/23 06:02:25;;;;;;;0.20;0.20;;;;;;;26.35;76.35;98607.59;5095330;28;20482;-60
2021/06/23 06:04:56;;;;;;;0.20;0.20;;;;;;;25.38;74.57;98620.66;5092788;28;20035;-64
2021/06/23 06:07:23;;;;;;;0.10;0.10;;;;;;;24.12;75.49;98624.38;5090874;28;20040;-61
2021/06/23 06:09:49;;;;;;;0.00;0.00;;;;;;;23.14;78.33;98621.63;5070521;28;20489;-61
2021/06/23 06:12:15;;;;;;;0.10;0.10;;;;;;;22.32;78.42;98624.59;5091305;28;20024;-59
2021/06/23 06:14:41;;;;;;;0.10;0.10;;;;;;;21.66;79.83;98627.75;5091150;28;20038;-60
2021/06/23 06:17:06;;;;;;;0.10;0.10;;;;;;;21.12;80.61;98615.44;5091400;28;20031;-60
2021/06/23 06:19:32;;;;;;;0.10;0.10;;;;;;;20.78;81.84;98617.47;5073116;28;20123;-63
2021/06/23 06:21:58;;;;;;;0.10;0.10;;;;;;;20.58;83.04;98626.16;5091073;28;20027;-59
2021/06/23 06:24:25;;;;;;;0.10;0.10;;;;;;;20.62;83.79;98614.09;5090991;28;20035;-61
2021/06/23 06:26:51;;;;;;;0.10;0.10;;;;;;;20.69;83.84;98619.31;5090987;28;20036;-59
2021/06/23 06:29:17;;;;;;;0.10;0.10;;;;;;;20.60;83.53;98624.75;5091078;28;20031;-61
2021/06/23 06:31:43;;;;;;;0.10;0.10;;;;;;;20.52;83.46;98611.47;5093301;28;20042;-59
2021/06/23 06:34:08;;;;;;;0.20;0.20;;;;;;;20.74;83.31;98616.41;5095122;28;20020;-61
2021/06/23 06:36:34;;;;;;;0.10;0.10;;;;;;;21.21;82.67;98615.56;5095289;28;20077;-59
2021/06/23 06:39:00;;;;;;;0.10;0.10;;;;;;;21.58;82.54;98631.28;5095219;28;20558;-60
2021/06/23 06:41:26;;;;;;;0.10;0.10;;;;;;;21.76;81.74;98626.72;5095030;28;20039;-61
2021/06/23 06:43:52;;;;;;;0.10;0.10;;;;;;;21.88;81.16;98645.72;5077013;28;20054;-60
2021/06/23 06:46:18;;;;;;;0.10;0.10;;;;;;;21.70;81.08;98630.72;5095194;28;20070;-62
2021/06/23 06:48:43;;;;;;;0.10;0.10;;;;;;;21.40;81.73;98635.81;5094735;28;20568;-60
2021/06/23 06:51:09;;;;;;;0.10;0.10;;;;;;;21.03;81.99;98622.88;5092322;28;20032;-61
2021/06/23 06:53:35;;;;;;;0.10;0.10;;;;;;;20.62;82.94;98621.63;5095062;28;20035;-60
2021/06/23 06:56:01;;;;;;;1.02;0.25;;;;;;;20.50;83.40;98621.31;5077152;28;20554;-61
2021/06/23 06:58:27;;;;;;;0.10;0.10;;;;;;;20.55;83.56;98627.59;5076931;28;20039;-60
2021/06/23 07:00:54;;;;;;;0.10;0.10;;;;;;;20.71;83.42;98630.16;5094788;28;20024;-63
2021/06/23 07:03:20;;;;;;;0.10;0.10;;;;;;;20.66;83.19;98631.09;5076379;28;20039;-63
2021/06/23 07:05:45;;;;;;;0.10;0.10;;;;;;;20.52;83.52;98625.41;5094695;28;20028;-61
2021/06/23 07:08:11;;;;;;;0.10;0.10;;;;;;;20.50;83.31;98638.03;5094135;28;20039;-59
2021/06/23 07:10:37;;;;;;;0.10;0.10;;;;;;;20.56;82.96;98628.44;5094000;28;20115;-58
2021/06/23 07:13:04;;;;;;;0.10;0.10;;;;;;;20.43;83.10;98625.28;5094425;28;20028;-58
2021/06/23 07:15:29;;;;;;;0.10;0.10;;;;;;;20.37;83.44;98634.06;5094415;28;20508;-60
2021/06/23 07:17:57;;;;;;;0.10;0.10;;;;;;;20.41;83.58;98638.72;5094272;28;20060;-60
2021/06/23 07:20:23;;;;;;;0.10;0.10;;;;;;;20.20;83.60;98641.03;5094371;28;20489;-61
2021/06/23 07:22:49;;;;;;;0.10;0.10;;;;;;;20.03;83.88;98643.50;5059416;28;20114;-60
2021/06/23 07:25:15;;;;;;;0.10;0.10;;;;;;;19.93;83.99;98638.91;5073458;28;20031;-61
2021/06/23 07:27:41;;;;;;;0.10;0.10;;;;;;;19.73;84.26;98645.59;5094198;28;20063;-62
2021/06/23 07:30:08;;;;;;;0.10;0.10;;;;;;;19.71;84.25;98634.75;5058653;28;20077;-58
2021/06/23 07:32:58;;;;;;;0.10;0.10;;;;;;;19.81;84.35;98638.53;5093913;28;20111;-59
2021/06/23 07:38:07;;;;;;;;;;;;;;;20.03;84.73;98627.59;5096710;28;20074;-60
2021/06/23 07:40:50;;;;;;;0.10;0.10;;;;;;;20.05;84.20;98630.94;5092578;28;19916;-61
2021/06/23 07:43:16;;;;;;;0.10;0.10;;;;;;;19.84;84.40;98633.19;5085533;28;20047;-61
2021/06/23 07:45:55;;;;;;;0.00;0.00;;;;;;;19.59;84.73;98637.94;5086601;28;20052;-62
2021/06/23 07:48:23;;;;;;;0.10;0.10;;;;;;;19.27;85.41;98635.84;5073009;28;20472;-63
2021/06/23 07:51:01;;;;;;;0.40;0.22;;;;;;;18.99;85.77;98638.41;5075750;28;20532;-63
2021/06/23 07:53:31;;;;;;;0.10;0.10;;;;;;;18.84;86.14;98644.06;5089180;28;20123;-62
2021/06/23 07:56:12;;;;;;;0.20;0.20;;;;;;;19.04;85.69;98629.97;5105205;28;20028;-64
2021/06/23 08:09:52;;;;;;;0.10;0.10;;;;;;;18.83;86.13;98628.50;5037501;28;20558;-59
2021/06/23 08:12:24;;;;;;;0.10;0.10;;;;;;;18.78;86.46;98636.91;5043367;28;20037;-61
2021/06/23 08:14:50;;;;;;;0.25;0.20;;;;;;;18.76;86.30;98642.78;5035252;28;20132;-61
2021/06/23 08:17:16;;;;;;;0.10;0.10;;;;;;;18.77;86.19;98627.75;5036197;28;20177;-62
2021/06/23 08:19:42;;;;;;;0.10;0.10;;;;;;;18.77;86.01;98638.03;5039455;28;20454;-61
2021/06/23 08:22:11;;;;;;;0.10;0.10;;;;;;;18.80;86.11;98645.78;5034811;28;20041;-60
2021/06/23 08:24:38;;;;;;;0.10;0.10;;;;;;;18.81;85.98;98648.25;5029796;28;20033;-60
2021/06/23 08:27:08;;;;;;;0.10;0.10;;;;;;;18.80;85.96;98643.84;5043816;28;20064;-58
2021/06/23 08:29:35;;;;;;;0.10;0.10;;;;;;;18.84;86.19;98639.34;5030932;28;20045;-61
2021/06/23 08:32:02;;;;;;;0.10;0.10;;;;;;;18.91;85.91;98653.75;5039146;28;20100;-60
2021/06/23 08:34:29;;;;;;;0.10;0.10;;;;;;;18.94;85.81;98651.53;5029348;28;20042;-61
2021/06/23 08:36:58;;;;;;;0.10;0.10;;;;;;;18.99;85.74;98648.69;5042155;28;20026;-61
2021/06/23 08:39:24;;;;;;;0.10;0.10;;;;;;;19.04;85.62;98648.63;5042578;28;20040;-61
2021/06/23 08:41:49;;;;;;;0.10;0.10;;;;;;;19.05;85.49;98639.16;5083189;28;20040;-61
2021/06/23 08:44:15;;;;;;;0.10;0.10;;;;;;;19.12;85.68;98645.19;5084128;28;20403;-55
2021/06/23 08:46:42;;;;;;;0.10;0.10;;;;;;;19.18;85.71;98644.00;5070949;28;20029;-62
2021/06/23 08:49:08;;;;;;;0.10;0.10;;;;;;;19.23;85.20;98632.81;5071214;28;20028;-58
2021/06/23 08:51:39;;;;;;;0.10;0.10;;;;;;;19.25;85.39;98630.56;5104402;28;20042;-50
2021/06/23 08:54:06;;;;;;;0.10;0.10;;;;;;;19.37;85.28;98629.31;5095084;28;20043;-53
2021/06/23 08:56:43;;;;;;;0.10;0.10;;;;;;;19.51;85.03;98635.00;5078899;28;20066;-65
2021/06/23 08:59:14;;;;;;;0.15;0.15;;;;;;;19.61;84.97;98637.66;5067009;28;20490;-62
2021/06/23 09:01:50;;;;;;;0.10;0.10;;;;;;;19.68;84.72;98628.94;5076685;28;20041;-60
2021/06/23 09:04:20;;;;;;;0.10;0.10;;;;;;;19.69;84.86;98639.75;5093607;28;20028;-67
2021/06/23 09:06:51;;;;;;;0.15;0.15;;;;;;;19.54;84.99;98651.13;5096027;28;20040;-60
2021/06/23 09:09:26;;;;;;;0.10;0.10;;;;;;;19.33;85.40;98640.25;5089062;28;20515;-63
2021/06/23 09:11:58;;;;;;;0.10;0.10;;;;;;;19.25;85.66;98646.44;5096599;28;20512;-55
2021/06/23 09:14:27;;;;;;;0.10;0.10;;;;;;;19.44;85.36;98641.75;5111365;28;20040;-58
2021/06/23 09:17:17;;;;;;;0.20;0.20;;;;;;;19.75;84.84;98637.75;5093035;28;20027;-56
2021/06/23 09:19:49;;;;;;;0.10;0.10;;;;;;;19.99;84.57;98629.34;5089486;28;20042;-61
2021/06/23 09:22:34;;;;;;;0.10;0.10;;;;;;;20.23;84.16;98629.25;5111089;28;20035;-60
2021/06/23 09:25:11;;;;;;;0.15;0.15;;;;;;;20.38;84.00;98635.72;5082273;28;20413;-61
2021/06/23 09:27:46;;;;;;;0.10;0.10;;;;;;;20.39;83.89;98627.06;5092586;28;20041;-59
2021/06/23 09:30:25;;;;;;;0.32;0.08;;;;;;;20.33;84.25;98627.44;5103202;28;20399;-58
2021/06/23 09:33:12;;;;;;;0.10;0.10;;;;;;;20.09;84.67;98625.56;5110604;28;20028;-59
2021/06/23 09:35:59;;;;;;;0.10;0.10;;;;;;;19.98;85.34;98633.28;5104578;28;20039;-61
2021/06/23 09:38:45;;;;;;;0.10;0.10;;;;;;;19.78;85.68;98628.81;5106971;28;20073;-61
2021/06/23 09:41:33;;;;;;;0.10;0.10;;;;;;;19.71;85.70;98628.31;5069889;28;20036;-59
2021/06/23 09:44:10;;;;;;;0.10;0.10;;;;;;;19.72;85.58;98633.59;5092891;28;20038;-60
2021/06/23 09:46:41;;;;;;;0.10;0.10;;;;;;;19.77;85.29;98625.19;5083326;28;20031;-60
2021/06/23 09:49:06;;;;;;;0.10;0.10;;;;;;;19.83;85.25;98625.13;5110598;28;20408;-61
2021/06/23 09:51:56;;;;;;;0.10;0.10;;;;;;;19.87;85.12;98610.28;5072883;28;20028;-60
2021/06/23 09:54:25;;;;;;;0.10;0.10;;;;;;;19.92;84.92;98603.81;5085173;28;20122;-60
2021/06/23 09:56:51;;;;;;;0.10;0.10;;;;;;;19.91;84.93;98602.16;5110375;28;20040;-60
2021/06/23 09:59:41;;;;;;;0.10;0.10;;;;;;;19.94;84.96;98599.59;5104489;28;20036;-62
2021/06/23 10:02:27;;;;;;;0.32;0.32;;;;;;;19.98;84.93;98599.84;5069776;28;20032;-61
2021/06/23 10:04:58;;;;;;;0.10;0.10;;;;;;;20.04;85.02;98590.25;5099335;28;20505;-60
2021/06/23 10:07:45;;;;;;;0.10;0.10;;;;;;;20.13;84.87;98587.63;5072216;28;20521;-61
2021/06/23 10:10:15;;;;;;;0.20;0.20;;;;;;;20.23;84.54;98589.38;5072257;28;20031;-61
2021/06/23 10:12:41;;;;;;;0.10;0.10;;;;;;;20.29;84.35;98588.19;5110599;28;20039;-61
2021/06/23 10:15:09;;;;;;;0.22;0.15;;;;;;;20.40;84.12;98597.19;5102605;28;20382;-61
2021/06/23 10:17:37;;;;;;;0.00;0.00;;;;;;;20.43;84.50;98600.19;5075184;28;20375;-61
2021/06/23 10:20:04;;;;;;;0.10;0.10;;;;;;;20.33;84.60;98602.34;5084454;28;20032;-60
2021/06/23 10:22:32;;;;;;;0.10;0.10;;;;;;;20.37;84.62;98592.25;5109860;28;20037;-60
2021/06/23 10:25:03;;;;;;;0.10;0.10;;;;;;;20.42;84.72;98592.13;5083156;28;20532;-60
2021/06/23 10:27:29;;;;;;;1.45;0.20;;;;;;;20.46;84.53;98588.47;5103054;28;20054;-59
2021/06/23 10:29:58;;;;;;;0.10;0.10;;;;;;;20.58;84.09;98599.13;5109127;28;20039;-62
2021/06/23 10:32:24;;;;;;;0.10;0.10;;;;;;;20.71;84.08;98599.47;5097490;28;20055;-61
2021/06/23 10:34:50;;;;;;;0.20;0.20;;;;;;;20.83;84.09;98591.41;5092662;28;20036;-59
2021/06/23 10:37:16;;;;;;;0.20;0.10;;;;;;;20.92;83.85;98595.19;5083986;28;20028;-60
2021/06/23 10:39:45;;;;;;;0.10;0.10;;;;;;;20.96;83.64;98601.78;5084628;28;20395;-60
2021/06/23 10:42:15;;;;;;;0.10;0.10;;;;;;;20.97;83.64;98608.19;5102207;28;20063;-59
2021/06/23 10:44:47;;;;;;;0.00;0.00;;;;;;;20.90;84.19;98607.78;5088775;28;20127;-60
2021/06/23 10:47:38;;;;;;;0.10;0.10;;;;;;;20.81;84.53;98610.44;5079449;28;20040;-59
2021/06/23 10:50:06;;;;;;;0.32;0.10;;;;;;;20.82;84.31;98604.56;5070533;28;20520;-60
2021/06/23 10:52:34;;;;;;;0.08;0.08;;;;;;;20.81;84.29;98602.91;5076797;28;20571;-60
2021/06/23 10:55:03;;;;;;;0.00;0.00;;;;;;;20.81;84.14;98600.09;5103478;28;20031;-59
2021/06/23 10:57:38;;;;;;;0.00;0.00;;;;;;;20.90;83.77;98605.81;5076941;28;20031;-59
2021/06/23 11:00:27;;;;;;;0.10;0.10;;;;;;;20.91;84.13;98596.31;5109792;28;20036;-61
2021/06/23 11:03:12;;;;;;;0.10;0.10;;;;;;;20.67;84.72;98598.44;5102796;28;20505;-60
2021/06/23 11:05:39;;;;;;;0.05;0.05;;;;;;;20.61;84.78;98590.13;5102537;28;20066;-60
2021/06/23 11:08:25;;;;;;;0.10;0.10;;;;;;;20.64;84.55;98586.72;5072562;28;20053;-60
2021/06/23 11:10:52;;;;;;;0.10;0.10;;;;;;;20.68;84.28;98591.72;5076580;28;20399;-60
2021/06/23 11:13:28;;;;;;;0.10;0.10;;;;;;;20.71;84.29;98589.13;5097977;28;20028;-60
2021/06/23 11:15:54;;;;;;;0.10;0.10;;;;;;;20.77;84.02;98593.50;5069183;28;20036;-59
2021/06/23 11:18:28;;;;;;;0.28;0.15;;;;;;;20.87;83.82;98597.22;5070302;28;20063;-59
2021/06/23 11:21:00;;;;;;;0.10;0.10;;;;;;;20.92;83.88;98597.13;5072779;28;20032;-60
2021/06/23 11:23:55;;;;;;;0.15;0.15;;;;;;;20.99;83.92;98598.38;5080771;28;20031;-59
2021/06/23 11:26:21;;;;;;;0.20;0.20;;;;;;;21.03;83.64;98594.97;5070303;28;20042;-55
2021/06/23 11:28:49;;;;;;;0.00;0.00;;;;;;;21.00;83.84;98591.66;5101821;28;20122;-54
2021/06/23 11:31:16;;;;;;;0.10;0.10;;;;;;;21.05;83.65;98593.50;5085835;28;20248;-54
2021/06/23 11:33:42;;;;;;;0.10;0.10;;;;;;;21.06;83.55;98594.34;5102896;28;20028;-53
2021/06/23 11:36:11;;;;;;;0.10;0.10;;;;;;;21.05;83.70;98581.53;5085299;28;20032;-61
2021/06/23 11:38:38;;;;;;;0.10;0.10;;;;;;;20.92;83.86;98589.59;5108945;28;20110;-61
2021/06/23 11:41:05;;;;;;;0.10;0.10;;;;;;;20.73;84.57;98584.09;5112197;28;20027;-60
2021/06/23 11:43:31;;;;;;;0.10;0.10;;;;;;;20.69;84.36;98590.59;5100236;28;20020;-60
2021/06/23 11:45:57;;;;;;;0.10;0.10;;;;;;;20.72;84.47;98581.63;5079586;28;20035;-61
2021/06/23 11:48:26;;;;;;;0.10;0.10;;;;;;;20.75;84.32;98581.00;5081201;28;20077;-60
2021/06/23 11:50:53;;;;;;;2.55;0.15;;;;;;;20.78;84.17;98577.59;5113053;28;20063;-59
2021/06/23 11:53:21;;;;;;;0.10;0.10;;;;;;;20.80;84.20;98569.72;5073326;28;20037;-58
2021/06/23 11:55:49;;;;;;;0.08;0.08;;;;;;;20.79;83.71;98579.25;5094050;28;20040;-57